Terminal Aerodrome Forecast
Issued by NWS

Home | Current Version | Previous Version | Text Only | Print | Product List | Glossary On
Versions: 1 2 3 4 5 6 7 8 9 10 11 12 13 14 15 16 17
000
FTUS41 KBGM 011700
TAFRME
TAF
KRME 011731Z 0118/0218 VRB05KT P6SM SCT025 BKN045
     FM020000 12003KT P6SM SCT040 BKN150
      TEMPO 0209/0213 4SM BR BKN025
     FM021500 25007KT P6SM BKN045=

USA.gov is the U.S. government's official web portal to all federal, state and local government web resources and services.